ADDS METAR Data INFO
IDs: Format: Raw Decoded Include TAF

Data at: 1356 UTC 17 Dec 2017

METAR for:KFXE (Ft Lauderdale/Execut, FL, US)
Text:KFXE 171353Z AUTO 09010KT 10SM SCT021 SCT030 23/21 A3023 RMK AO2 SLP238 T02330206
Temperature: 23.3°C ( 74°F)
Dewpoint: 20.6°C ( 69°F) [RH = 85%]
Pressure (altimeter):30.23 inches Hg (1023.8 mb) [Sea level pressure: 1023.8 mb]
Winds:from the E (90 degrees) at 12 MPH (10 knots; 5.1 m/s)
Visibility:10 or more sm (16+ km)
Ceiling:at least 12,000 feet AGL
Clouds: scattered clouds at 2100 feet AGL, scattered clouds at 3000 feet AGL
QC Flag:automated observation with no human augmentation